Soaring Guidance
Issued by NWS Reno, NV

Home | Current Version | Previous Version | Text Only | Print | Product List | Glossary On
Versions: 1 2 3 4 5 6 7 8
000
UXUS97 KREV 241351
SRGREV

SOARING FORECAST
NATIONAL WEATHER SERVICE - RENO NV
700 AM PDT MON JUL 24 2017

THIS SOARING FORECAST IS FOR THE EASTERN SIERRA AND WESTERN NEVADA
WITH SPECIFIC INDICES FOR THE GREATER RENO AREA.

THIS FORECAST IS PREPARED DAILY BY 700 AM AND IS NOT UPDATED.

FOR CURRENT FLIGHT CONDITIONS...FORECASTS...AND ADVISORIES...ACCESS
YOUR LOCAL BRIEFING OUTLET OR FLIGHT SERVICE STATION.

*******************************************************************
FORECASTED LOCAL INDICES FOR RENO:        TODAY     YESTERDAY
FORECASTED MAX TEMP AT RENO (DEG F).....     94         102
FORECASTED TRIGGER TEMPERATURE (DEG F)..     84          87
   EXCEEDED YESTERDAY BY 1055 AM PDT
FORECASTED MAXIMUM ALTITUDE (FT MSL)....  17600       18000
FORECASTED SOARING INDEX (FPM)..........   1218        1344
FORECASTED K-INDEX.........VALID 18Z....     31          23
FORECASTED K-INDEX.........VALID 00Z....     34          28
FORECASTED LIFTED INDEX....VALID 18Z....      0           1
FORECASTED LIFTED INDEX....VALID 00Z....     -2          -2

AFTERNOON WINDS ALOFT FORECAST
MSL (FT) WIND/TEMP
9000  2805/+18
10000 9903/+15
12000 9900/+09
14000 9904/+03
16000 9909/-02
18000 1925/-08
24000 1938/-21
30000 2060/-35
34000 2070/-43
39000 2169/-52

SLIDE MOUNTAIN DATA:
     DATE       TIME     TEMP  DEWPT   RH         WIND (MPH)
                        (F)   (F)           | DIR  SPEED GUST
2017-07-24    05:20      58    43     47    | 153    5   13
2017-07-24    05:00      58    43     47    | 142    5   13
2017-07-24    04:50      58    43     47    | 149    7   15
2017-07-24    04:30      57    43     48    | 149    7   14

RENO TAF FORECAST:
KRNO 241124Z 2412/2512 VRB03KT P6SM VCTS BKN120CB
     FM241500 VRB03KT P6SM SCT120
     FM242100 19008KT P6SM VCTS SCT150CB SCT200
     FM250000 29010G20KT P6SM SCT100 BKN200

CARSON CITY TAF FORECAST:
KCXP 241124Z 2412/2512 VRB04KT P6SM VCTS BKN100CB
     FM241500 VRB03KT P6SM SCT100
     FM242100 27007G15KT P6SM VCTS SCT120CB BKN200

OUTLOOK FOR THE RENO-CARSON CITY-MINDEN AREA:
.TUESDAY...PARTLY CLOUDY. SLIGHT CHANCE OF SHOWERS AND
THUNDERSTORMS IN THE AFTERNOON. HIGHS 88 TO 93. LIGHT WINDS
BECOMING SOUTH AROUND 10 MPH IN THE AFTERNOON.

SUNRISE AND SUNSET
JULY 24 2017..........SUNRISE   552 AM PDT   SUNSET   819 PM PDT
JULY 25 2017..........SUNRISE   553 AM PDT   SUNSET   818 PM PDT



USA.gov is the U.S. government's official web portal to all federal, state and local government web resources and services.